Metar z pełnej godziny Komunikat METAR ze strony awiacja.imgw.pl Metar G00 EPKT METAR EPKT 240500Z 17006KT 4000 BR NSC M01/M03 Q1024 =